Time;durP1;ratioP1;P1;durP2;ratioP2;P2;SDS_P1;SDS_P2;PMS_P1;PMS_P2;Temp;Humidity;BMP_temperature;BMP_pressure;BME280_temperature;BME280_humidity;BME280_pressure;Samples;Min_cycle;Max_cycle;Signal;HPM_P1;HPM_P2
2022/04/05 00:00:29;;;;;;;3.42;1.92;;;22.50;35.20;;;;;;5023663;28;20033;-52
2022/04/05 00:02:56;;;;;;;2.63;1.60;;;22.50;35.10;;;;;;5024906;28;20065;-52
2022/04/05 00:05:22;;;;;;;3.05;1.30;;;22.50;35.10;;;;;;5024262;28;20482;-52
2022/04/05 00:07:47;;;;;;;3.10;1.55;;;22.50;35.00;;;;;;5023993;28;20033;-52
2022/04/05 00:10:14;;;;;;;2.63;1.45;;;22.50;35.00;;;;;;5024289;28;20521;-52
2022/04/05 00:12:40;;;;;;;2.92;1.42;;;22.50;35.00;;;;;;5024049;28;20056;-52
2022/04/05 00:15:09;;;;;;;2.90;1.42;;;22.50;35.00;;;;;;5024265;28;20034;-53
2022/04/05 00:17:35;;;;;;;2.60;1.42;;;22.50;35.00;;;;;;5023803;28;20400;-52
2022/04/05 00:20:01;;;;;;;5.80;1.90;;;22.50;35.00;;;;;;5024084;28;20199;-53
2022/04/05 00:22:27;;;;;;;2.17;1.27;;;22.40;34.90;;;;;;5023749;28;20037;-52
2022/04/05 00:24:52;;;;;;;2.90;1.40;;;22.40;34.90;;;;;;5023989;28;20029;-53
2022/04/05 00:27:18;;;;;;;2.13;1.25;;;22.40;34.80;;;;;;5023800;28;20057;-52
2022/04/05 00:29:44;;;;;;;2.78;1.55;;;22.40;34.90;;;;;;5022698;28;20489;-52
2022/04/05 00:32:10;;;;;;;2.17;1.30;;;22.40;34.80;;;;;;5023370;28;20120;-52
2022/04/05 00:34:36;;;;;;;2.85;1.40;;;22.40;34.80;;;;;;5023930;28;20056;-51
2022/04/05 00:37:02;;;;;;;2.60;1.50;;;22.40;34.80;;;;;;5024313;28;20116;-52
2022/04/05 00:39:29;;;;;;;2.58;1.13;;;22.40;34.80;;;;;;5023686;28;20025;-52
2022/04/05 00:41:56;;;;;;;2.75;1.42;;;22.40;34.80;;;;;;5023286;28;20083;-52
2022/04/05 00:44:22;;;;;;;2.08;1.13;;;22.40;34.70;;;;;;4984345;28;1136113;-52
2022/04/05 00:46:51;;;;;;;3.17;1.70;;;22.40;34.70;;;;;;5024381;28;20124;-51
2022/04/05 00:49:30;;;;;;;2.88;1.35;;;22.40;34.70;;;;;;5024288;28;20548;-52
2022/04/05 00:51:57;;;;;;;3.00;1.70;;;22.30;34.70;;;;;;5024640;28;20037;-52
2022/04/05 00:54:25;;;;;;;2.78;1.27;;;22.30;34.70;;;;;;5023125;28;20056;-52
2022/04/05 00:56:55;;;;;;;2.42;1.25;;;22.30;34.70;;;;;;5024001;28;20026;-52
2022/04/05 00:59:23;;;;;;;3.13;1.10;;;22.30;34.70;;;;;;5023819;28;20086;-53
2022/04/05 01:01:50;;;;;;;2.30;1.30;;;22.30;34.70;;;;;;5023765;28;20125;-52
2022/04/05 01:04:17;;;;;;;1.83;1.10;;;22.30;34.70;;;;;;5024516;28;20156;-54
2022/04/05 01:06:47;;;;;;;2.65;1.33;;;22.30;34.70;;;;;;5024252;28;20029;-52
2022/04/05 01:09:14;;;;;;;2.28;1.23;;;22.20;34.60;;;;;;5024554;28;20029;-51
2022/04/05 01:11:40;;;;;;;3.63;1.40;;;22.20;34.60;;;;;;5024261;28;20665;-52
2022/04/05 01:14:06;;;;;;;2.80;1.48;;;22.20;34.60;;;;;;5024542;28;20033;-52
2022/04/05 01:16:33;;;;;;;2.92;1.42;;;22.20;34.60;;;;;;5024471;28;20022;-51
2022/04/05 01:18:59;;;;;;;2.05;1.10;;;22.20;34.60;;;;;;5024581;28;20036;-52
2022/04/05 01:21:25;;;;;;;2.22;1.13;;;22.20;34.60;;;;;;5024671;28;20030;-52
2022/04/05 01:24:23;;;;;;;2.10;1.20;;;22.20;34.60;;;;;;5024730;28;20026;-52
2022/04/05 01:26:54;;;;;;;2.45;1.45;;;22.20;34.60;;;;;;4980740;28;20037;-52
2022/04/05 01:29:22;;;;;;;2.58;1.42;;;22.20;34.70;;;;;;5022929;28;20049;-52
2022/04/05 01:31:53;;;;;;;2.50;1.40;;;22.20;34.70;;;;;;5022985;28;20022;-52
2022/04/05 01:34:21;;;;;;;2.30;1.30;;;22.20;34.70;;;;;;5024474;28;20104;-52
2022/04/05 01:36:50;;;;;;;2.80;1.30;;;22.20;34.70;;;;;;5024342;28;20044;-52
2022/04/05 01:39:17;;;;;;;2.20;1.30;;;22.20;34.60;;;;;;5023986;28;20044;-52
2022/04/05 01:41:44;;;;;;;2.30;1.33;;;22.10;34.60;;;;;;5024118;28;20025;-52
2022/04/05 01:44:12;;;;;;;2.70;1.30;;;22.10;34.60;;;;;;5024186;28;20029;-52
2022/04/05 01:46:38;;;;;;;2.15;1.10;;;22.10;34.70;;;;;;5024060;28;20045;-52
2022/04/05 01:49:08;;;;;;;2.53;1.20;;;22.10;34.70;;;;;;5024302;28;20032;-52
2022/04/05 01:51:35;;;;;;;2.08;1.13;;;22.10;34.70;;;;;;5023488;28;20026;-52
2022/04/05 01:54:05;;;;;;;2.20;1.20;;;22.10;34.70;;;;;;5023802;28;20087;-51
2022/04/05 01:56:40;;;;;;;2.50;1.35;;;22.10;34.70;;;;;;5023521;28;20040;-52
2022/04/05 01:59:05;;;;;;;1.40;0.90;;;22.10;34.70;;;;;;5023962;28;20516;-52
2022/04/05 02:01:31;;;;;;;2.72;1.20;;;22.10;34.70;;;;;;5022687;28;20100;-52
2022/04/05 02:03:57;;;;;;;2.40;1.23;;;22.10;34.70;;;;;;5023863;28;20021;-52
2022/04/05 02:06:24;;;;;;;1.88;1.10;;;22.10;34.70;;;;;;5023844;28;20036;-52
2022/04/05 02:08:50;;;;;;;2.30;1.20;;;22.10;34.70;;;;;;5010627;28;20022;-51
2022/04/05 02:11:16;;;;;;;2.10;1.00;;;22.10;34.70;;;;;;5027090;28;20503;-51
2022/04/05 02:13:42;;;;;;;1.70;1.00;;;22.10;34.70;;;;;;5027038;28;20029;-51
2022/04/05 02:16:08;;;;;;;2.35;0.98;;;22.00;34.60;;;;;;5027641;28;20032;-52
2022/04/05 02:18:37;;;;;;;1.88;1.05;;;22.00;34.60;;;;;;5026818;28;20026;-55
2022/04/05 02:21:03;;;;;;;1.65;0.93;;;22.00;34.60;;;;;;5025828;28;20037;-52
2022/04/05 02:23:29;;;;;;;2.17;1.10;;;22.00;34.60;;;;;;5026930;28;20033;-51
2022/04/05 02:25:55;;;;;;;1.65;0.90;;;22.00;34.60;;;;;;5027005;28;20757;-51
2022/04/05 02:28:21;;;;;;;1.13;0.65;;;22.00;34.60;;;;;;5027066;28;20392;-51
2022/04/05 02:30:46;;;;;;;2.10;1.00;;;22.00;34.60;;;;;;5026725;28;20079;-52
2022/04/05 02:33:12;;;;;;;1.73;0.95;;;22.00;34.60;;;;;;5027084;28;20034;-51
2022/04/05 02:35:38;;;;;;;2.13;0.98;;;22.00;34.60;;;;;;5025641;28;20136;-51
2022/04/05 02:38:04;;;;;;;1.52;0.80;;;22.00;34.60;;;;;;5027047;28;20125;-52
2022/04/05 02:40:30;;;;;;;1.92;0.90;;;21.90;34.60;;;;;;5026696;28;20040;-52
2022/04/05 02:42:56;;;;;;;1.73;1.00;;;21.90;34.60;;;;;;5026521;28;20033;-52
2022/04/05 02:45:22;;;;;;;2.20;1.20;;;21.90;34.60;;;;;;5026247;28;20037;-51
2022/04/05 02:47:49;;;;;;;2.45;1.05;;;21.90;34.60;;;;;;5026316;28;20053;-52
2022/04/05 02:50:18;;;;;;;1.83;1.00;;;21.90;34.50;;;;;;5025262;28;20087;-52
2022/04/05 02:52:48;;;;;;;2.38;1.20;;;21.90;34.50;;;;;;5025930;28;20076;-51
2022/04/05 02:55:15;;;;;;;2.00;1.20;;;21.90;34.50;;;;;;5026558;28;20029;-51
2022/04/05 02:57:42;;;;;;;2.17;0.95;;;21.90;34.60;;;;;;5026876;28;20501;-51
2022/04/05 03:00:11;;;;;;;2.03;1.00;;;21.90;34.60;;;;;;5026446;28;20681;-51
2022/04/05 03:02:37;;;;;;;2.03;0.80;;;21.90;34.60;;;;;;5024954;28;20033;-52
2022/04/05 03:05:06;;;;;;;2.28;1.00;;;21.90;34.60;;;;;;5024914;28;20026;-52
2022/04/05 03:07:37;;;;;;;2.17;0.90;;;21.90;34.60;;;;;;5025245;28;20571;-51
2022/04/05 03:10:04;;;;;;;2.88;0.90;;;21.90;34.60;;;;;;5025477;28;20392;-51
2022/04/05 03:12:30;;;;;;;1.85;0.80;;;21.90;34.50;;;;;;5025735;28;20049;-51
2022/04/05 03:14:56;;;;;;;1.63;0.85;;;21.90;34.50;;;;;;5026090;28;20030;-51
2022/04/05 03:17:22;;;;;;;1.90;0.70;;;21.90;34.50;;;;;;5025450;28;20030;-51
2022/04/05 03:19:48;;;;;;;1.30;0.80;;;21.90;34.50;;;;;;5025095;28;20497;-51
2022/04/05 03:22:16;;;;;;;1.70;1.00;;;21.80;34.40;;;;;;5025652;28;20036;-52
2022/04/05 03:24:42;;;;;;;2.85;0.80;;;21.80;34.40;;;;;;5025563;28;20661;-52
2022/04/05 03:27:08;;;;;;;1.55;0.80;;;21.80;34.40;;;;;;5024622;28;20030;-52
2022/04/05 03:29:34;;;;;;;2.50;1.20;;;21.80;34.40;;;;;;5026246;28;20401;-52
2022/04/05 03:32:01;;;;;;;2.08;1.08;;;21.80;34.40;;;;;;5007762;28;20025;-53
2022/04/05 03:34:28;;;;;;;1.80;0.90;;;21.80;34.40;;;;;;5025392;28;20028;-52
2022/04/05 03:36:54;;;;;;;1.33;0.85;;;21.80;34.40;;;;;;5024197;28;20033;-52
2022/04/05 03:39:20;;;;;;;1.85;0.90;;;21.80;34.40;;;;;;5024994;28;20029;-52
2022/04/05 03:41:46;;;;;;;1.83;0.82;;;21.80;34.40;;;;;;5024965;28;20041;-52
2022/04/05 03:44:11;;;;;;;2.40;1.00;;;21.80;34.40;;;;;;5025501;28;20037;-51
2022/04/05 03:46:37;;;;;;;1.80;0.88;;;21.80;34.40;;;;;;5024140;28;20037;-52
2022/04/05 03:49:03;;;;;;;1.50;0.80;;;21.80;34.40;;;;;;5023519;28;20125;-52
2022/04/05 03:51:29;;;;;;;2.40;1.20;;;21.80;34.40;;;;;;5024700;28;20551;-52
2022/04/05 03:53:55;;;;;;;2.00;0.95;;;21.80;34.30;;;;;;5025555;28;20026;-52
2022/04/05 03:56:22;;;;;;;2.00;0.90;;;21.80;34.40;;;;;;5025591;28;20026;-51
2022/04/05 03:58:49;;;;;;;2.00;1.02;;;21.80;34.20;;;;;;5025633;28;20036;-51
2022/04/05 04:01:15;;;;;;;2.50;1.10;;;21.80;34.20;;;;;;5023594;28;20651;-51
2022/04/05 04:03:41;;;;;;;2.15;0.95;;;21.80;34.20;;;;;;5024350;28;20033;-52
2022/04/05 04:06:06;;;;;;;2.78;1.10;;;21.70;34.20;;;;;;5024918;28;20033;-52
2022/04/05 04:08:32;;;;;;;1.90;1.08;;;21.70;34.10;;;;;;5024272;28;20040;-53
2022/04/05 04:10:58;;;;;;;1.75;0.93;;;21.70;34.10;;;;;;5025238;28;20117;-54
2022/04/05 04:13:24;;;;;;;1.55;0.95;;;21.70;34.10;;;;;;5024349;28;20041;-52
2022/04/05 04:15:50;;;;;;;1.60;0.90;;;21.70;34.20;;;;;;5023907;28;20029;-53
2022/04/05 04:18:16;;;;;;;2.17;1.00;;;21.70;34.20;;;;;;5024473;28;20488;-52
2022/04/05 04:20:44;;;;;;;3.65;0.90;;;21.70;34.20;;;;;;5023638;28;20051;-52
2022/04/05 04:23:11;;;;;;;1.60;0.73;;;21.70;34.30;;;;;;5024493;28;20025;-52
2022/04/05 04:25:37;;;;;;;1.75;0.93;;;21.80;34.40;;;;;;5025351;28;20101;-51
2022/04/05 04:28:08;;;;;;;1.60;0.80;;;21.80;34.30;;;;;;5023247;28;20034;-52
2022/04/05 04:30:35;;;;;;;1.88;1.00;;;21.80;34.30;;;;;;5024719;28;20100;-52
2022/04/05 04:33:02;;;;;;;1.10;0.70;;;21.80;34.20;;;;;;5023982;28;20025;-52
2022/04/05 04:35:28;;;;;;;1.83;0.80;;;21.80;34.30;;;;;;5024356;28;20026;-52
2022/04/05 04:37:54;;;;;;;1.23;0.70;;;21.90;34.30;;;;;;5023944;28;20025;-51
2022/04/05 04:40:20;;;;;;;2.97;0.80;;;21.90;34.90;;;;;;5024452;28;20033;-51
2022/04/05 04:42:46;;;;;;;1.33;0.75;;;22.00;34.20;;;;;;5024598;28;20080;-51
2022/04/05 04:45:13;;;;;;;1.48;0.63;;;22.00;34.20;;;;;;5023102;28;20614;-52
2022/04/05 04:47:39;;;;;;;1.27;0.70;;;22.10;34.20;;;;;;5024141;28;20033;-52
2022/04/05 04:50:06;;;;;;;1.20;0.70;;;22.20;34.20;;;;;;5024579;28;20053;-52
2022/04/05 04:52:32;;;;;;;1.17;0.70;;;22.20;34.00;;;;;;5023381;28;20032;-51
2022/04/05 04:54:58;;;;;;;1.10;0.50;;;22.30;33.70;;;;;;5024570;28;20100;-52
2022/04/05 04:57:25;;;;;;;1.73;0.90;;;22.40;33.70;;;;;;5023589;28;20099;-51
2022/04/05 04:59:52;;;;;;;2.25;0.95;;;22.40;33.60;;;;;;5024010;28;20095;-52
2022/04/05 05:02:18;;;;;;;1.30;0.80;;;22.50;33.60;;;;;;5022284;28;20042;-52
2022/04/05 05:04:44;;;;;;;1.27;0.60;;;22.60;33.50;;;;;;5023866;28;20033;-52
2022/04/05 05:07:10;;;;;;;1.35;0.80;;;22.60;33.50;;;;;;5024109;28;20053;-51
2022/04/05 05:09:35;;;;;;;1.38;0.70;;;22.60;33.20;;;;;;5023746;28;20623;-52
2022/04/05 05:12:01;;;;;;;1.23;0.73;;;22.70;33.20;;;;;;5022417;28;20693;-51
2022/04/05 05:14:27;;;;;;;2.13;0.90;;;22.70;33.10;;;;;;5021823;28;20037;-51
2022/04/05 05:16:54;;;;;;;1.55;0.68;;;22.80;33.10;;;;;;5019983;28;20033;-51
2022/04/05 05:19:21;;;;;;;1.50;0.70;;;22.90;33.20;;;;;;5023018;28;20698;-51
2022/04/05 05:21:46;;;;;;;2.17;1.00;;;22.90;33.40;;;;;;5022969;28;20108;-50
2022/04/05 05:24:12;;;;;;;1.90;0.90;;;23.00;33.70;;;;;;5023220;28;20100;-49
2022/04/05 05:26:39;;;;;;;1.52;0.75;;;23.00;33.80;;;;;;5023029;28;20030;-50
2022/04/05 05:29:05;;;;;;;2.50;0.98;;;23.00;33.80;;;;;;5021847;28;20394;-50
2022/04/05 05:31:31;;;;;;;2.05;0.80;;;23.10;34.00;;;;;;5020760;28;20493;-50
2022/04/05 05:33:57;;;;;;;2.38;0.80;;;23.10;34.40;;;;;;5022945;28;20075;-49
2022/04/05 05:36:23;;;;;;;2.97;0.95;;;23.20;34.50;;;;;;5022904;28;20030;-50
2022/04/05 05:38:49;;;;;;;2.22;0.80;;;23.20;34.50;;;;;;5021579;28;20484;-49
2022/04/05 05:41:14;;;;;;;2.17;0.90;;;23.20;34.60;;;;;;5005070;28;20505;-48
2022/04/05 05:43:45;;;;;;;2.10;0.80;;;23.30;34.70;;;;;;5016619;28;20083;-50
2022/04/05 05:46:11;;;;;;;1.05;0.60;;;23.30;34.60;;;;;;5013658;28;20495;-49
2022/04/05 05:48:37;;;;;;;2.60;0.70;;;23.30;34.50;;;;;;5016146;28;20220;-50
2022/04/05 05:51:03;;;;;;;3.35;0.70;;;23.40;34.40;;;;;;5002080;28;20120;-50
2022/04/05 05:53:29;;;;;;;2.00;0.80;;;23.40;34.40;;;;;;5018830;28;20101;-50
2022/04/05 05:55:54;;;;;;;1.55;0.80;;;23.50;34.40;;;;;;5019343;28;20021;-49
2022/04/05 05:58:20;;;;;;;1.58;0.80;;;23.50;34.30;;;;;;5019540;28;20700;-50
2022/04/05 06:00:46;;;;;;;2.75;0.98;;;23.50;34.10;;;;;;5021769;28;21401;-50
2022/04/05 06:03:12;;;;;;;1.55;0.70;;;23.50;34.00;;;;;;5020636;28;20040;-51
2022/04/05 06:05:37;;;;;;;2.08;0.80;;;23.50;33.80;;;;;;5019839;28;20029;-51
2022/04/05 06:08:06;;;;;;;1.75;0.82;;;23.50;33.80;;;;;;5019743;28;20051;-51
2022/04/05 06:10:32;;;;;;;1.85;0.98;;;23.50;34.10;;;;;;5016387;28;20033;-50
2022/04/05 06:12:58;;;;;;;2.38;1.15;;;23.60;34.50;;;;;;5021815;28;20630;-51
2022/04/05 06:15:25;;;;;;;1.85;0.68;;;23.60;34.70;;;;;;5025766;28;20076;-51
2022/04/05 06:17:53;;;;;;;1.63;0.75;;;23.60;35.00;;;;;;5027012;28;20057;-52
2022/04/05 06:20:21;;;;;;;1.83;0.85;;;23.60;35.00;;;;;;5027161;28;20660;-51
2022/04/05 06:22:50;;;;;;;1.75;0.73;;;23.60;35.10;;;;;;5024942;28;20061;-52
2022/04/05 06:25:20;;;;;;;1.48;0.70;;;23.70;35.10;;;;;;5026234;28;20072;-51
2022/04/05 06:27:46;;;;;;;2.97;0.70;;;23.70;34.80;;;;;;5024857;28;20439;-51
2022/04/05 06:30:13;;;;;;;3.40;1.02;;;23.70;34.80;;;;;;5026435;28;20017;-51
2022/04/05 06:32:39;;;;;;;2.83;0.80;;;23.70;34.90;;;;;;5024113;28;20023;-53
2022/04/05 06:35:07;;;;;;;4.47;1.25;;;23.70;34.80;;;;;;5024338;28;20045;-53
2022/04/05 06:37:33;;;;;;;2.70;0.82;;;23.70;34.70;;;;;;5024630;28;20385;-51
2022/04/05 06:39:59;;;;;;;4.68;1.13;;;23.70;35.00;;;;;;5023896;28;20060;-49
2022/04/05 06:42:25;;;;;;;1.58;0.77;;;23.80;34.70;;;;;;5024900;28;20057;-53
2022/04/05 06:44:53;;;;;;;3.30;0.95;;;23.70;34.70;;;;;;5025093;28;20645;-51
2022/04/05 06:47:19;;;;;;;1.55;0.57;;;23.80;34.70;;;;;;5024840;28;20091;-52
2022/04/05 06:49:45;;;;;;;2.40;0.85;;;23.70;34.60;;;;;;5025490;28;20025;-50
2022/04/05 06:52:10;;;;;;;2.80;0.90;;;23.70;34.50;;;;;;5026633;28;20030;-51
2022/04/05 06:54:36;;;;;;;2.47;0.80;;;23.70;34.50;;;;;;5026993;28;20509;-50
2022/04/05 06:57:02;;;;;;;3.03;0.90;;;23.80;34.40;;;;;;5026282;28;20030;-51
2022/04/05 06:59:27;;;;;;;2.13;0.90;;;23.80;34.30;;;;;;5026838;28;20560;-52
2022/04/05 07:01:53;;;;;;;2.60;1.00;;;23.80;34.20;;;;;;5026031;28;20565;-51
2022/04/05 07:04:19;;;;;;;2.55;1.25;;;23.80;34.10;;;;;;5026240;28;20075;-51
2022/04/05 07:06:45;;;;;;;2.35;0.90;;;23.80;34.00;;;;;;5026158;28;20472;-51
2022/04/05 07:09:10;;;;;;;2.65;1.10;;;23.80;33.90;;;;;;5025731;28;20030;-52
2022/04/05 07:11:37;;;;;;;2.30;1.02;;;23.80;33.80;;;;;;5025762;28;20041;-53
2022/04/05 07:14:03;;;;;;;1.95;0.80;;;23.80;33.80;;;;;;5025204;28;20076;-52
2022/04/05 07:16:29;;;;;;;2.00;0.80;;;23.80;33.80;;;;;;5025790;28;20021;-51
2022/04/05 07:18:55;;;;;;;2.35;1.10;;;23.80;33.70;;;;;;5025729;28;20116;-52
2022/04/05 07:21:20;;;;;;;1.58;0.73;;;23.80;33.70;;;;;;5025961;28;20108;-52
2022/04/05 07:23:48;;;;;;;2.17;0.98;;;23.80;33.70;;;;;;5024687;28;20034;-52
2022/04/05 07:26:13;;;;;;;1.27;0.80;;;23.80;33.70;;;;;;5025062;28;20371;-53
2022/04/05 07:28:39;;;;;;;2.17;1.08;;;23.80;33.60;;;;;;5024374;28;20151;-53
2022/04/05 07:31:05;;;;;;;1.35;0.60;;;23.80;33.60;;;;;;5022948;28;20029;-51
2022/04/05 07:33:31;;;;;;;2.00;0.90;;;23.80;33.60;;;;;;5022176;28;20071;-52
2022/04/05 07:35:57;;;;;;;1.52;0.60;;;23.80;33.60;;;;;;5023675;28;20176;-51
2022/04/05 07:38:24;;;;;;;1.52;0.70;;;23.80;33.50;;;;;;5022925;28;20056;-52
2022/04/05 07:40:52;;;;;;;2.13;0.80;;;23.80;33.50;;;;;;5025183;28;20041;-52
2022/04/05 07:43:28;;;;;;;1.83;0.70;;;23.80;33.50;;;;;;5025265;28;20029;-51
2022/04/05 07:45:54;;;;;;;1.30;0.68;;;23.80;33.50;;;;;;5025235;28;20041;-51
2022/04/05 07:48:23;;;;;;;3.05;0.82;;;23.80;33.70;;;;;;5025287;28;20202;-51
2022/04/05 07:50:49;;;;;;;2.63;0.90;;;23.80;33.40;;;;;;5024605;28;20026;-51
2022/04/05 07:53:16;;;;;;;1.95;0.90;;;23.90;33.40;;;;;;5024611;28;20026;-51
2022/04/05 07:55:42;;;;;;;1.13;0.63;;;23.80;33.30;;;;;;5025874;28;20060;-51
2022/04/05 07:58:08;;;;;;;1.23;0.50;;;23.90;33.40;;;;;;5025256;28;20263;-50
2022/04/05 08:00:34;;;;;;;1.88;0.80;;;23.80;33.30;;;;;;5025625;28;20064;-52
2022/04/05 08:02:59;;;;;;;1.15;0.50;;;23.90;33.30;;;;;;5024198;28;20593;-51
2022/04/05 08:05:27;;;;;;;1.48;0.73;;;23.90;33.30;;;;;;5022418;28;20353;-53
2022/04/05 08:07:53;;;;;;;1.15;0.70;;;23.90;33.20;;;;;;5023499;28;20284;-50
2022/04/05 08:10:19;;;;;;;1.52;0.70;;;23.90;33.10;;;;;;5024365;28;20636;-51
2022/04/05 08:12:48;;;;;;;1.27;0.60;;;23.90;33.20;;;;;;5024755;28;20317;-51
2022/04/05 08:15:16;;;;;;;1.80;0.77;;;23.90;33.20;;;;;;5024533;28;20025;-52
2022/04/05 08:17:41;;;;;;;1.50;0.60;;;23.90;33.20;;;;;;5023976;28;20037;-52
2022/04/05 08:20:08;;;;;;;1.60;0.57;;;23.90;33.00;;;;;;5022991;28;20026;-51
2022/04/05 08:22:34;;;;;;;1.27;0.60;;;23.80;33.00;;;;;;5024558;28;20029;-52
2022/04/05 08:25:00;;;;;;;3.17;1.08;;;23.80;32.90;;;;;;5024894;28;20397;-51
2022/04/05 08:27:26;;;;;;;1.48;0.75;;;23.90;32.90;;;;;;5024735;28;20033;-51
2022/04/05 08:29:51;;;;;;;1.27;0.57;;;23.90;32.90;;;;;;5025027;28;20028;-51
2022/04/05 08:32:17;;;;;;;1.60;0.60;;;23.80;32.90;;;;;;5023741;28;20148;-51
2022/04/05 08:34:45;;;;;;;1.27;0.60;;;23.90;33.00;;;;;;5024563;28;20053;-51
2022/04/05 08:37:12;;;;;;;1.35;0.63;;;23.80;32.90;;;;;;5024678;28;20040;-52
2022/04/05 08:39:39;;;;;;;1.75;0.70;;;23.80;32.80;;;;;;5024039;28;20034;-51
2022/04/05 08:42:06;;;;;;;1.27;0.60;;;23.80;32.80;;;;;;5023728;28;20061;-50
2022/04/05 08:44:32;;;;;;;1.20;0.60;;;23.90;32.90;;;;;;5024097;28;20048;-50
2022/04/05 08:47:03;;;;;;;1.48;0.60;;;23.80;32.90;;;;;;5024442;28;20029;-53
2022/04/05 08:49:30;;;;;;;1.20;0.57;;;23.90;32.90;;;;;;5023606;28;20527;-51
2022/04/05 08:51:56;;;;;;;1.45;0.50;;;23.90;32.90;;;;;;5024626;28;20033;-52
2022/04/05 08:54:22;;;;;;;1.95;0.75;;;23.90;32.90;;;;;;5023924;28;20033;-52
2022/04/05 08:56:48;;;;;;;1.30;0.60;;;23.90;32.90;;;;;;5024733;28;20025;-53
2022/04/05 08:59:14;;;;;;;1.98;0.60;;;23.90;32.80;;;;;;5023519;28;20022;-51
2022/04/05 09:01:40;;;;;;;1.95;0.95;;;23.90;32.70;;;;;;5023947;28;20045;-51
2022/04/05 09:04:06;;;;;;;1.17;0.60;;;23.90;32.70;;;;;;5023729;28;20098;-51
2022/04/05 09:06:34;;;;;;;1.17;0.50;;;23.90;32.70;;;;;;5024391;28;20525;-50
2022/04/05 09:09:11;;;;;;;0.55;0.35;;;23.90;32.70;;;;;;5024146;28;20037;-51
2022/04/05 09:11:44;;;;;;;1.50;0.47;;;23.90;32.70;;;;;;5024512;28;20017;-51
2022/04/05 09:14:11;;;;;;;1.17;0.50;;;23.90;32.60;;;;;;5024511;28;20498;-51
2022/04/05 09:16:36;;;;;;;1.20;0.55;;;23.90;32.60;;;;;;5024578;28;20135;-51
2022/04/05 09:19:13;;;;;;;1.08;0.47;;;24.00;32.60;;;;;;5027952;28;20521;-51
2022/04/05 09:21:58;;;;;;;0.93;0.52;;;23.90;32.60;;;;;;5027948;28;20094;-51
2022/04/05 09:24:34;;;;;;;0.90;0.50;;;24.00;32.60;;;;;;5027971;28;20021;-50
2022/04/05 09:27:00;;;;;;;1.05;0.40;;;24.00;32.60;;;;;;5028937;28;20037;-51
2022/04/05 09:29:42;;;;;;;1.42;0.45;;;24.00;32.60;;;;;;5028599;28;20305;-51
2022/04/05 09:32:09;;;;;;;0.93;0.40;;;24.00;32.60;;;;;;5027156;28;20032;-50
2022/04/05 09:34:50;;;;;;;0.68;0.40;;;24.00;32.50;;;;;;5028473;28;20087;-51
2022/04/05 09:37:23;;;;;;;1.00;0.60;;;24.00;32.60;;;;;;5028016;28;20431;-51
2022/04/05 09:39:49;;;;;;;1.02;0.45;;;24.00;32.50;;;;;;5027721;28;20026;-52
2022/04/05 09:42:14;;;;;;;0.93;0.60;;;24.00;32.60;;;;;;5026277;28;20392;-51
2022/04/05 09:44:45;;;;;;;1.10;0.60;;;24.00;32.50;;;;;;5028046;28;20072;-53
2022/04/05 09:47:14;;;;;;;1.10;0.45;;;24.00;32.50;;;;;;5027594;28;20059;-53
2022/04/05 09:49:42;;;;;;;0.98;0.40;;;24.00;32.50;;;;;;5027360;28;20084;-51
2022/04/05 09:52:33;;;;;;;1.38;0.57;;;24.00;32.40;;;;;;5027418;28;20257;-51
2022/04/05 09:55:13;;;;;;;0.57;0.40;;;24.00;32.50;;;;;;5027984;28;20105;-51
2022/04/05 09:57:39;;;;;;;0.85;0.40;;;24.00;32.40;;;;;;5025905;28;20029;-51
2022/04/05 10:00:09;;;;;;;1.33;0.50;;;24.00;32.50;;;;;;5027662;28;20525;-56
2022/04/05 10:02:35;;;;;;;1.27;0.50;;;24.00;32.40;;;;;;5027194;28;20563;-51
2022/04/05 10:05:06;;;;;;;0.98;0.50;;;24.00;32.40;;;;;;5027576;28;20038;-52
2022/04/05 10:07:33;;;;;;;1.38;0.55;;;24.00;33.10;;;;;;5027916;28;20060;-52
2022/04/05 10:10:00;;;;;;;1.00;0.50;;;24.00;32.40;;;;;;5027130;28;20029;-51
2022/04/05 10:12:26;;;;;;;0.50;0.30;;;24.00;32.40;;;;;;5027066;28;20234;-50
2022/04/05 10:14:52;;;;;;;1.48;0.63;;;24.00;32.50;;;;;;5026922;28;20041;-51
2022/04/05 10:17:20;;;;;;;0.50;0.25;;;24.00;32.50;;;;;;5027195;28;20575;-51
2022/04/05 10:19:50;;;;;;;1.02;0.40;;;24.00;32.50;;;;;;5027226;28;20116;-51
2022/04/05 10:22:17;;;;;;;0.55;0.30;;;24.00;32.40;;;;;;5027230;28;20167;-52
2022/04/05 10:24:45;;;;;;;0.47;0.32;;;24.00;32.40;;;;;;5026930;28;20029;-50
2022/04/05 10:27:11;;;;;;;1.33;0.50;;;24.00;32.40;;;;;;5026958;28;20033;-51
2022/04/05 10:29:37;;;;;;;0.82;0.40;;;24.00;32.40;;;;;;5027204;28;20029;-51
2022/04/05 10:32:27;;;;;;;1.42;0.73;;;24.10;32.40;;;;;;5027021;28;20021;-52
2022/04/05 10:35:04;;;;;;;1.15;0.40;;;24.10;32.40;;;;;;5027383;28;20137;-52
2022/04/05 10:37:35;;;;;;;0.90;0.30;;;24.00;32.40;;;;;;5027014;28;20037;-53
2022/04/05 10:40:01;;;;;;;0.70;0.40;;;24.00;32.30;;;;;;5026888;28;20029;-51
2022/04/05 10:42:38;;;;;;;0.98;0.50;;;24.10;32.50;;;;;;5026685;28;20525;-52
2022/04/05 10:45:20;;;;;;;0.55;0.38;;;24.00;32.40;;;;;;5026591;28;20045;-51
2022/04/05 10:48:18;;;;;;;1.00;0.50;;;24.10;32.40;;;;;;5026964;28;20651;-52
2022/04/05 10:50:59;;;;;;;0.88;0.45;;;24.10;32.40;;;;;;5026853;28;20323;-52
2022/04/05 10:53:35;;;;;;;0.77;0.40;;;24.10;32.40;;;;;;5026210;28;20033;-51
2022/04/05 10:56:05;;;;;;;0.40;0.30;;;24.00;32.30;;;;;;5026327;28;20025;-53
2022/04/05 10:58:47;;;;;;;0.50;0.20;;;24.00;32.30;;;;;;5026839;28;20021;-50
2022/04/05 11:01:23;;;;;;;1.00;0.30;;;24.00;32.30;;;;;;5026116;28;20080;-50
2022/04/05 11:04:16;;;;;;;1.33;0.47;;;24.10;32.40;;;;;;5026282;28;20048;-50
2022/04/05 11:07:02;;;;;;;1.17;0.45;;;24.00;32.30;;;;;;5026644;28;20512;-50
2022/04/05 11:09:57;;;;;;;0.50;0.20;;;24.10;32.50;;;;;;5025021;28;20496;-50
2022/04/05 11:12:33;;;;;;;1.00;0.50;;;24.10;32.50;;;;;;5024309;28;20480;-51
2022/04/05 11:15:05;;;;;;;0.95;0.47;;;24.10;32.40;;;;;;5026488;28;20091;-51
2022/04/05 11:17:32;;;;;;;0.55;0.30;;;24.10;32.50;;;;;;5026365;28;20048;-51
2022/04/05 11:19:59;;;;;;;0.73;0.35;;;24.10;32.40;;;;;;5026481;28;20433;-51
2022/04/05 11:22:31;;;;;;;1.00;0.40;;;24.10;32.40;;;;;;5025848;28;20034;-51
2022/04/05 11:25:07;;;;;;;0.35;0.20;;;24.10;32.40;;;;;;5026628;28;20029;-52
2022/04/05 11:27:42;;;;;;;1.05;0.47;;;24.10;32.50;;;;;;5026087;28;20524;-51
2022/04/05 11:30:23;;;;;;;0.65;0.35;;;24.10;32.40;;;;;;5006629;28;20030;-53
2022/04/05 11:33:09;;;;;;;0.47;0.28;;;24.00;32.40;;;;;;5012587;28;20030;-51
2022/04/05 11:35:42;;;;;;;0.65;0.30;;;24.00;32.30;;;;;;5025942;28;20033;-52
2022/04/05 11:38:32;;;;;;;2.05;0.60;;;24.00;32.30;;;;;;5025665;28;20029;-52
2022/04/05 11:41:03;;;;;;;0.50;0.30;;;24.00;32.30;;;;;;5024230;28;20037;-52
2022/04/05 11:43:34;;;;;;;0.73;0.30;;;24.00;32.30;;;;;;5024374;28;20044;-52
2022/04/05 11:46:21;;;;;;;0.90;0.30;;;24.00;32.40;;;;;;5025687;28;20098;-52
2022/04/05 11:48:53;;;;;;;0.70;0.20;;;24.00;32.40;;;;;;5025481;28;20091;-51
2022/04/05 11:51:24;;;;;;;1.23;0.30;;;24.00;32.40;;;;;;5025861;28;20034;-52
2022/04/05 11:53:51;;;;;;;0.75;0.30;;;24.10;32.40;;;;;;5025197;28;20548;-53
2022/04/05 11:56:20;;;;;;;0.93;0.40;;;24.00;32.30;;;;;;5025698;28;20040;-51
2022/04/05 11:58:54;;;;;;;0.65;0.30;;;24.00;32.40;;;;;;5025311;28;20029;-51
2022/04/05 12:01:42;;;;;;;1.15;0.40;;;24.00;32.40;;;;;;5024985;28;20036;-51
2022/04/05 12:04:18;;;;;;;0.75;0.40;;;24.00;32.40;;;;;;5024711;28;20125;-51
2022/04/05 12:07:01;;;;;;;0.75;0.32;;;24.00;32.40;;;;;;5025508;28;20432;-51
2022/04/05 12:09:27;;;;;;;;;;;24.00;32.40;;;;;;5024541;28;20055;-51
2022/04/05 12:11:53;;;;;;;1.20;0.47;;;24.00;32.40;;;;;;5024929;28;19905;-52
2022/04/05 12:14:22;;;;;;;0.85;0.40;;;24.00;32.40;;;;;;5024000;28;20029;-50
2022/04/05 12:17:01;;;;;;;0.70;0.30;;;24.00;32.50;;;;;;5025312;28;20088;-52
2022/04/05 12:19:36;;;;;;;0.90;0.40;;;24.00;32.50;;;;;;5024923;28;20575;-51
2022/04/05 12:22:10;;;;;;;0.82;0.30;;;24.00;32.50;;;;;;5023447;28;20021;-51
2022/04/05 12:24:42;;;;;;;2.17;0.50;;;24.00;32.30;;;;;;5025080;28;20029;-52
2022/04/05 12:27:08;;;;;;;0.40;0.30;;;24.00;32.40;;;;;;5023871;28;20537;-51
2022/04/05 12:29:39;;;;;;;1.05;0.30;;;24.00;32.50;;;;;;5023134;28;20025;-52
2022/04/05 12:32:07;;;;;;;1.05;0.40;;;24.00;32.40;;;;;;5022567;28;20619;-51
2022/04/05 12:34:33;;;;;;;0.82;0.32;;;24.00;32.40;;;;;;5023373;28;20030;-53
2022/04/05 12:37:05;;;;;;;1.08;0.40;;;24.00;32.40;;;;;;5023086;28;20036;-52
2022/04/05 12:39:33;;;;;;;1.52;0.55;;;24.00;32.30;;;;;;5023080;28;20049;-52
2022/04/05 12:42:09;;;;;;;1.17;0.35;;;24.00;32.40;;;;;;5023377;28;20030;-51
2022/04/05 12:44:40;;;;;;;0.77;0.30;;;24.00;32.40;;;;;;5023864;28;20033;-51
2022/04/05 12:47:09;;;;;;;1.67;0.45;;;24.00;32.30;;;;;;5024741;28;20030;-51
2022/04/05 12:49:42;;;;;;;0.88;0.30;;;24.00;32.30;;;;;;5005005;28;20384;-51
2022/04/05 12:52:12;;;;;;;;;;;24.00;32.40;;;;;;5004725;28;20049;-51
2022/04/05 12:54:51;;;;;;;0.80;0.20;;;24.00;32.40;;;;;;5003950;28;20108;-51